createdAt,value
2022-12-15T00:08:14.985Z,12.40
2022-12-15T00:18:36.473Z,12.30
2022-12-15T00:28:58.921Z,12.30
2022-12-15T00:39:04.054Z,12.20
2022-12-15T00:49:30.296Z,12.20
2022-12-15T00:59:51.430Z,12.40
2022-12-15T01:10:14.220Z,12.60
2022-12-15T01:20:21.380Z,12.60
2022-12-15T01:30:28.482Z,12.60
2022-12-15T01:40:52.680Z,12.50
2022-12-15T01:51:07.253Z,12.60
2022-12-15T02:01:12.114Z,12.50
2022-12-15T02:11:39.902Z,12.50
2022-12-15T02:21:50.161Z,12.50
2022-12-15T02:32:00.239Z,12.20
2022-12-15T02:42:04.281Z,12.30
2022-12-15T02:52:21.514Z,12.40
2022-12-15T03:02:28.454Z,12.50
2022-12-15T03:12:34.113Z,12.60
2022-12-15T03:22:38.278Z,12.80
2022-12-15T03:32:43.510Z,12.90
2022-12-15T03:42:50.223Z,13.00
2022-12-15T03:52:57.240Z,13.00
2022-12-15T04:03:02.026Z,13.10
2022-12-15T04:13:09.415Z,13.10
2022-12-15T04:23:13.225Z,13.20
2022-12-15T04:33:36.339Z,13.20
2022-12-15T04:43:58.046Z,13.30
2022-12-15T04:54:20.856Z,13.40
2022-12-15T05:04:42.289Z,13.40
2022-12-15T05:15:05.095Z,13.40
2022-12-15T05:25:26.796Z,13.50
2022-12-15T05:35:32.261Z,13.70
2022-12-15T05:45:36.222Z,13.70
2022-12-15T05:55:41.620Z,13.90
2022-12-15T06:05:45.485Z,13.90
2022-12-15T06:15:58.859Z,14.00
2022-12-15T06:26:10.358Z,14.30
2022-12-15T06:36:17.531Z,14.00
2022-12-15T06:46:22.138Z,14.40
2022-12-15T06:56:33.699Z,13.60
2022-12-15T07:06:39.523Z,12.80
2022-12-15T07:16:45.896Z,12.60
2022-12-15T07:26:50.006Z,12.90
2022-12-15T07:36:55.700Z,12.90
2022-12-15T07:46:59.600Z,12.70
2022-12-15T07:57:05.926Z,13.10
2022-12-15T08:07:10.563Z,13.20
2022-12-15T08:17:15.924Z,13.20
2022-12-15T08:27:20.911Z,13.20
2022-12-15T08:37:27.122Z,13.10
2022-12-15T08:47:31.219Z,13.40
2022-12-15T08:57:36.606Z,13.50
2022-12-15T09:07:40.372Z,13.50
2022-12-15T09:17:45.551Z,13.70
2022-12-15T09:27:49.352Z,13.60
2022-12-15T09:37:54.801Z,14.20
2022-12-15T09:48:02.928Z,14.70
2022-12-15T09:58:19.936Z,15.20
2022-12-15T10:08:25.323Z,15.40
2022-12-15T10:18:34.505Z,15.50
2022-12-15T10:29:04.834Z,15.90
2022-12-15T10:39:14.307Z,16.60
2022-12-15T10:49:25.854Z,17.00
2022-12-15T10:59:33.831Z,17.70
2022-12-15T11:09:40.253Z,18.70
2022-12-15T11:19:55.254Z,19.60
2022-12-15T11:30:12.472Z,18.20
2022-12-15T11:40:36.002Z,17.50
2022-12-15T11:50:51.160Z,18.70
2022-12-15T12:01:06.322Z,19.60
2022-12-15T12:11:15.050Z,20.40
2022-12-15T12:21:25.030Z,20.70
2022-12-15T12:31:40.757Z,20.70
2022-12-15T12:41:51.381Z,20.80
2022-12-15T12:51:58.976Z,20.90
2022-12-15T13:02:48.586Z,20.90
2022-12-15T13:12:55.697Z,20.50
2022-12-15T13:23:33.243Z,20.90
2022-12-15T13:33:46.688Z,20.70
2022-12-15T13:43:55.072Z,20.40
2022-12-15T13:54:04.547Z,20.50
2022-12-15T14:04:15.949Z,20.50
2022-12-15T14:14:24.062Z,21.50
2022-12-15T14:24:39.463Z,21.80
2022-12-15T14:34:50.571Z,21.50
2022-12-15T14:44:57.999Z,20.20
2022-12-15T14:55:05.383Z,19.10
2022-12-15T15:05:28.015Z,18.60
2022-12-15T15:15:33.586Z,17.60
2022-12-15T15:25:40.857Z,18.10
2022-12-15T15:35:50.483Z,18.80
2022-12-15T15:46:02.311Z,17.30
2022-12-15T15:56:11.015Z,16.90
2022-12-15T16:06:17.757Z,16.50
2022-12-15T16:16:25.530Z,16.20
2022-12-15T16:26:31.790Z,16.00
2022-12-15T16:36:37.017Z,15.80
2022-12-15T16:46:41.583Z,15.70
2022-12-15T16:56:47.062Z,15.50
2022-12-15T17:06:51.066Z,15.50
2022-12-15T17:16:56.274Z,15.50
2022-12-15T17:27:00.896Z,15.40
2022-12-15T17:37:08.394Z,15.40
2022-12-15T17:47:12.387Z,15.30
2022-12-15T17:57:17.952Z,15.20
2022-12-15T18:07:23.624Z,15.00
2022-12-15T18:17:29.248Z,14.90
2022-12-15T18:27:33.158Z,14.80
2022-12-15T18:37:38.364Z,14.80
2022-12-15T18:47:42.455Z,14.70
2022-12-15T18:57:48.370Z,14.70
2022-12-15T19:07:52.546Z,14.80
2022-12-15T19:18:15.464Z,14.50
2022-12-15T19:28:20.735Z,14.00
2022-12-15T19:38:29.156Z,13.70
2022-12-15T19:48:33.289Z,13.70
2022-12-15T19:58:39.036Z,13.50
2022-12-15T20:08:45.955Z,13.10
2022-12-15T20:18:53.492Z,12.70
2022-12-15T20:28:58.143Z,12.40
2022-12-15T20:39:03.832Z,12.20
2022-12-15T20:49:15.462Z,12.00
2022-12-15T20:59:20.784Z,12.10
2022-12-15T21:09:25.529Z,12.30
2022-12-15T21:19:30.909Z,12.90
2022-12-15T21:29:36.409Z,13.10
2022-12-15T21:39:42.261Z,13.50
2022-12-15T21:49:46.513Z,13.60
2022-12-15T21:59:51.960Z,13.40
2022-12-15T22:09:55.820Z,13.60
2022-12-15T22:20:00.968Z,13.90
2022-12-15T22:30:04.996Z,14.10
2022-12-15T22:40:12.165Z,14.20
2022-12-15T22:50:19.062Z,14.40
2022-12-15T23:00:24.573Z,14.30
2022-12-15T23:10:45.595Z,14.20
2022-12-15T23:20:51.965Z,14.20
2022-12-15T23:30:56.213Z,14.10
2022-12-15T23:41:01.613Z,14.10
2022-12-15T23:51:07.934Z,14.20
